createdAt,value
2023-02-03T00:01:41.966Z,65.82
2023-02-03T00:04:45.274Z,65.73
2023-02-03T00:07:48.945Z,65.62
2023-02-03T00:10:52.368Z,65.63
2023-02-03T00:13:55.582Z,65.64
2023-02-03T00:16:58.786Z,65.52
2023-02-03T00:20:01.982Z,65.35
2023-02-03T00:23:07.750Z,65.49
2023-02-03T00:26:15.576Z,65.26
2023-02-03T00:29:21.561Z,65.28
2023-02-03T00:32:24.861Z,65.22
2023-02-03T00:35:28.385Z,65.04
2023-02-03T00:38:31.665Z,65.21
2023-02-03T00:41:34.892Z,65.18
2023-02-03T00:44:38.084Z,65.18
2023-02-03T00:47:41.692Z,65.23
2023-02-03T00:50:47.244Z,65.15
2023-02-03T00:53:50.497Z,65.22
2023-02-03T00:56:53.771Z,65.12
2023-02-03T00:59:58.133Z,65.00
2023-02-03T01:03:01.455Z,64.90
2023-02-03T01:06:15.423Z,64.86
2023-02-03T01:09:18.633Z,64.74
2023-02-03T01:12:21.859Z,64.80
2023-02-03T01:15:25.104Z,64.75
2023-02-03T01:18:28.835Z,64.78
2023-02-03T01:21:32.307Z,64.87
2023-02-03T01:24:35.721Z,64.66
2023-02-03T01:27:38.987Z,64.70
2023-02-03T01:30:42.233Z,64.49
2023-02-03T01:33:48.224Z,64.44
2023-02-03T01:36:52.041Z,64.34
2023-02-03T01:39:55.361Z,64.40
2023-02-03T01:42:58.682Z,64.44
2023-02-03T01:46:07.497Z,64.40
2023-02-03T01:49:24.472Z,64.29
2023-02-03T01:52:28.145Z,64.28
2023-02-03T01:55:37.445Z,64.25
2023-02-03T01:58:42.633Z,64.37
2023-02-03T02:01:47.140Z,64.24
2023-02-03T02:05:11.178Z,64.06
2023-02-03T02:08:16.327Z,64.16
2023-02-03T02:11:23.552Z,64.12
2023-02-03T02:14:26.898Z,64.21
2023-02-03T02:17:50.308Z,64.02
2023-02-03T02:21:04.996Z,63.88
2023-02-03T02:24:17.140Z,63.98
2023-02-03T02:27:20.514Z,64.12
2023-02-03T02:30:52.040Z,63.94
2023-02-03T02:34:07.988Z,64.07
2023-02-03T02:37:37.469Z,64.10
2023-02-03T02:40:53.972Z,64.13
2023-02-03T02:44:07.835Z,63.93
2023-02-03T02:47:16.714Z,63.98
2023-02-03T02:50:26.974Z,63.93
2023-02-03T02:53:35.692Z,63.91
2023-02-03T02:56:41.511Z,63.98
2023-02-03T02:59:46.751Z,63.92
2023-02-03T03:02:50.218Z,63.89
2023-02-03T03:06:02.106Z,63.89
2023-02-03T03:09:11.920Z,63.89
2023-02-03T03:12:19.023Z,63.92
2023-02-03T03:15:27.053Z,63.96
2023-02-03T03:18:37.438Z,63.89
2023-02-03T03:21:47.863Z,63.85
2023-02-03T03:24:55.864Z,63.95
2023-02-03T03:28:05.287Z,63.85
2023-02-03T03:31:08.698Z,63.88
2023-02-03T03:34:13.730Z,63.95
2023-02-03T03:37:26.282Z,63.84
2023-02-03T03:40:39.380Z,63.79
2023-02-03T03:43:47.391Z,63.73
2023-02-03T03:47:01.296Z,63.69
2023-02-03T03:50:08.335Z,63.61
2023-02-03T03:53:13.841Z,63.61
2023-02-03T03:56:24.536Z,63.40
2023-02-03T03:59:31.696Z,63.48
2023-02-03T04:02:39.304Z,63.43
2023-02-03T04:05:43.056Z,63.48
2023-02-03T04:08:46.271Z,63.42
2023-02-03T04:12:01.936Z,63.24
2023-02-03T04:15:05.518Z,63.26
2023-02-03T04:18:08.936Z,63.17
2023-02-03T04:21:12.130Z,63.11
2023-02-03T04:24:15.404Z,63.07
2023-02-03T04:27:18.686Z,63.12
2023-02-03T04:30:22.129Z,63.19
2023-02-03T04:33:25.352Z,63.24
2023-02-03T04:36:28.561Z,63.27
2023-02-03T04:39:31.756Z,63.25
2023-02-03T04:42:37.337Z,63.25
2023-02-03T04:45:40.694Z,63.30
2023-02-03T04:48:43.930Z,63.33
2023-02-03T04:51:49.354Z,63.29
2023-02-03T04:54:52.591Z,63.38
2023-02-03T04:58:00.232Z,63.40
2023-02-03T05:01:10.206Z,63.41
2023-02-03T05:04:13.474Z,63.51
2023-02-03T05:07:16.703Z,63.39
2023-02-03T05:10:19.980Z,63.34
2023-02-03T05:13:23.189Z,63.36
2023-02-03T05:16:26.595Z,63.44
2023-02-03T05:19:29.803Z,63.56
2023-02-03T05:22:35.320Z,63.54
2023-02-03T05:25:38.753Z,63.59
2023-02-03T05:28:42.070Z,63.63
2023-02-03T05:31:45.398Z,63.70
2023-02-03T05:34:48.672Z,63.67
2023-02-03T05:37:51.828Z,63.69
2023-02-03T05:41:13.513Z,63.68
2023-02-03T05:44:16.761Z,63.67
2023-02-03T05:47:20.013Z,63.66
2023-02-03T05:50:23.408Z,63.68
2023-02-03T05:53:27.696Z,63.65
2023-02-03T05:56:30.986Z,63.71
2023-02-03T05:59:34.229Z,63.74
2023-02-03T06:02:37.473Z,63.67
2023-02-03T06:05:41.436Z,63.66
2023-02-03T06:08:45.186Z,63.65
2023-02-03T06:11:48.410Z,63.61
2023-02-03T06:14:51.570Z,63.58
2023-02-03T06:17:54.878Z,63.69
2023-02-03T06:20:58.060Z,63.63
2023-02-03T06:24:01.345Z,63.60
2023-02-03T06:27:04.546Z,63.56
2023-02-03T06:30:09.355Z,63.64
2023-02-03T06:33:12.657Z,63.58
2023-02-03T06:36:15.892Z,63.41
2023-02-03T06:39:19.091Z,63.53
2023-02-03T06:42:22.319Z,63.44
2023-02-03T06:45:25.927Z,63.47
2023-02-03T06:48:29.223Z,63.36
2023-02-03T06:51:32.466Z,63.15
2023-02-03T06:54:36.072Z,63.27
2023-02-03T06:57:47.209Z,63.23
2023-02-03T07:00:51.530Z,63.08
2023-02-03T07:03:57.889Z,63.14
2023-02-03T07:07:01.097Z,63.08
2023-02-03T07:10:04.351Z,63.11
2023-02-03T07:13:08.592Z,62.98
2023-02-03T07:16:12.005Z,63.02
2023-02-03T07:19:15.368Z,63.08
2023-02-03T07:22:18.777Z,62.92
2023-02-03T07:25:23.375Z,62.87
2023-02-03T07:28:26.859Z,62.77
2023-02-03T07:31:30.371Z,62.76
2023-02-03T07:34:33.861Z,62.65
2023-02-03T07:37:37.183Z,62.63
2023-02-03T07:40:40.707Z,62.60
2023-02-03T07:43:43.947Z,62.67
2023-02-03T07:46:47.383Z,62.66
2023-02-03T07:49:50.706Z,62.58
2023-02-03T07:52:55.590Z,62.50
2023-02-03T07:56:03.103Z,62.46
2023-02-03T07:59:06.816Z,62.46
2023-02-03T08:02:11.498Z,62.46
2023-02-03T08:05:15.876Z,62.46
2023-02-03T08:08:19.276Z,62.50
2023-02-03T08:11:22.670Z,62.40
2023-02-03T08:14:26.228Z,62.34
2023-02-03T08:17:29.560Z,62.41
2023-02-03T08:20:32.972Z,62.48
2023-02-03T08:23:36.422Z,62.42
2023-02-03T08:26:41.944Z,62.30
2023-02-03T08:29:50.148Z,62.42
2023-02-03T08:32:53.475Z,62.35
2023-02-03T08:35:57.095Z,62.44
2023-02-03T08:39:00.502Z,62.38
2023-02-03T08:42:04.922Z,62.45
2023-02-03T08:45:08.631Z,62.60
2023-02-03T08:48:12.141Z,62.55
2023-02-03T08:51:17.131Z,62.65
2023-02-03T08:54:20.496Z,62.94
2023-02-03T08:57:23.797Z,62.95
2023-02-03T09:00:27.673Z,63.14
2023-02-03T09:03:31.293Z,63.43
2023-02-03T09:06:35.679Z,63.46
2023-02-03T09:09:39.217Z,63.73
2023-02-03T09:12:46.349Z,63.78
2023-02-03T09:15:49.676Z,64.10
2023-02-03T09:18:53.019Z,64.19
2023-02-03T09:22:00.064Z,64.46
2023-02-03T09:25:03.917Z,64.59
2023-02-03T09:28:07.280Z,64.68
2023-02-03T09:31:13.909Z,64.77
2023-02-03T09:34:20.923Z,64.90
2023-02-03T09:37:24.180Z,65.05
2023-02-03T09:40:35.441Z,65.14
2023-02-03T09:43:53.595Z,65.51
2023-02-03T09:47:01.098Z,65.50
2023-02-03T09:50:27.397Z,65.77
2023-02-03T09:53:45.317Z,65.78
2023-02-03T09:56:55.643Z,66.01
2023-02-03T10:00:06.694Z,66.11
2023-02-03T10:03:25.007Z,66.21
2023-02-03T10:06:40.547Z,66.32
2023-02-03T10:10:03.417Z,66.52
2023-02-03T10:13:13.425Z,66.62
2023-02-03T10:16:37.076Z,66.70
2023-02-03T10:19:51.843Z,66.88
2023-02-03T10:23:01.844Z,66.97
2023-02-03T10:26:12.108Z,67.19
2023-02-03T10:29:34.781Z,67.19
2023-02-03T10:32:38.092Z,67.38
2023-02-03T10:35:50.446Z,67.62
2023-02-03T10:39:12.050Z,67.78
2023-02-03T10:42:16.813Z,67.69
2023-02-03T10:45:21.275Z,67.85
2023-02-03T10:48:25.644Z,67.77
2023-02-03T10:51:38.957Z,67.88
2023-02-03T10:54:42.280Z,68.12
2023-02-03T10:57:45.753Z,68.18
2023-02-03T11:01:04.456Z,68.30
2023-02-03T11:04:24.681Z,68.38
2023-02-03T11:07:30.702Z,68.45
2023-02-03T11:10:40.816Z,68.45
2023-02-03T11:13:44.505Z,68.65
2023-02-03T11:16:49.396Z,68.84
2023-02-03T11:19:55.780Z,68.90
2023-02-03T11:23:00.671Z,68.99
2023-02-03T11:26:15.233Z,68.96
2023-02-03T11:29:41.205Z,69.04
2023-02-03T11:32:48.037Z,69.09
2023-02-03T11:35:59.557Z,69.24
2023-02-03T11:39:20.403Z,69.35
2023-02-03T11:42:25.064Z,69.28
2023-02-03T11:45:28.408Z,69.45
2023-02-03T11:49:01.992Z,69.48
2023-02-03T11:52:29.824Z,69.64
2023-02-03T11:56:21.138Z,69.59
2023-02-03T11:59:38.103Z,69.60
2023-02-03T12:03:07.552Z,69.74
2023-02-03T12:06:22.299Z,69.74
2023-02-03T12:10:02.751Z,70.02
2023-02-03T12:13:30.846Z,69.98
2023-02-03T12:17:01.972Z,70.01
2023-02-03T12:20:20.370Z,70.15
2023-02-03T12:23:33.203Z,70.22
2023-02-03T12:26:49.782Z,70.24
2023-02-03T12:30:02.200Z,70.31
2023-02-03T12:33:12.222Z,70.38
2023-02-03T12:36:21.382Z,70.52
2023-02-03T12:39:36.786Z,70.49
2023-02-03T12:42:46.474Z,70.54
2023-02-03T12:45:58.214Z,70.70
2023-02-03T12:49:15.604Z,70.61
2023-02-03T12:52:49.649Z,70.70
2023-02-03T12:55:56.765Z,70.71
2023-02-03T12:59:06.778Z,70.94
2023-02-03T13:02:28.254Z,70.90
2023-02-03T13:25:19.682Z,71.86
2023-02-03T13:28:35.235Z,71.75
2023-02-03T13:31:38.922Z,71.97
2023-02-03T13:35:06.247Z,71.86
2023-02-03T13:38:38.711Z,72.06
2023-02-03T13:41:53.312Z,71.81
2023-02-03T13:45:17.492Z,71.97
2023-02-03T13:48:24.669Z,71.87
2023-02-03T13:51:34.836Z,71.86
2023-02-03T13:54:44.500Z,71.89
2023-02-03T13:57:52.108Z,71.91
2023-02-03T14:00:56.521Z,72.13
2023-02-03T14:04:00.925Z,71.89
2023-02-03T14:07:24.922Z,72.15
2023-02-03T14:10:29.339Z,72.18
2023-02-03T14:13:34.889Z,72.26
2023-02-03T14:16:39.354Z,72.26
2023-02-03T14:19:52.224Z,72.19
2023-02-03T14:23:07.692Z,72.38
2023-02-03T14:26:20.332Z,72.43
2023-02-03T14:29:30.917Z,72.46
2023-02-03T14:32:55.605Z,72.37
2023-02-03T14:36:00.511Z,72.58
2023-02-03T14:39:20.077Z,72.52
2023-02-03T14:42:36.096Z,72.57
2023-02-03T14:46:16.110Z,72.49
2023-02-03T14:49:22.526Z,72.56
2023-02-03T14:52:52.669Z,72.80
2023-02-03T14:56:16.592Z,72.76
2023-02-03T14:59:25.365Z,72.91
2023-02-03T15:02:31.147Z,72.76
2023-02-03T15:05:42.067Z,72.78
2023-02-03T15:08:47.150Z,73.10
2023-02-03T15:11:50.623Z,73.00
2023-02-03T15:14:54.173Z,73.18
2023-02-03T15:18:00.139Z,73.19
2023-02-03T15:21:04.642Z,73.34
2023-02-03T15:24:21.535Z,73.45
2023-02-03T15:27:30.213Z,73.49
2023-02-03T15:30:33.768Z,73.67
2023-02-03T15:33:39.751Z,73.56
2023-02-03T15:36:48.557Z,73.63
2023-02-03T15:40:08.997Z,73.72
2023-02-03T15:43:27.457Z,73.81
2023-02-03T15:46:41.202Z,73.93
2023-02-03T15:49:46.200Z,74.27
2023-02-03T15:52:53.448Z,74.15
2023-02-03T15:56:03.890Z,74.26
2023-02-03T15:59:23.722Z,74.44
2023-02-03T16:02:44.063Z,74.45
2023-02-03T16:05:50.824Z,74.46
2023-02-03T16:08:55.534Z,74.62
2023-02-03T16:12:15.606Z,74.62
2023-02-03T16:15:24.395Z,74.80
2023-02-03T16:18:27.912Z,74.76
2023-02-03T16:21:33.106Z,74.74
2023-02-03T16:24:38.450Z,74.92
2023-02-03T16:27:45.038Z,75.07
2023-02-03T16:31:17.087Z,75.12
2023-02-03T16:34:38.793Z,75.13
2023-02-03T16:38:03.747Z,75.23
2023-02-03T16:41:35.234Z,75.38
2023-02-03T16:44:57.394Z,75.39
2023-02-03T16:48:20.353Z,75.25
2023-02-03T16:51:42.806Z,75.18
2023-02-03T16:54:46.333Z,75.30
2023-02-03T16:57:51.470Z,75.33
2023-02-03T17:00:55.383Z,75.55
2023-02-03T17:03:58.668Z,75.49
2023-02-03T17:07:03.060Z,75.63
2023-02-03T17:10:06.790Z,75.64
2023-02-03T17:13:10.887Z,75.60
2023-02-03T17:16:17.335Z,75.68
2023-02-03T17:19:20.761Z,75.56
2023-02-03T17:22:24.092Z,75.71
2023-02-03T17:25:27.847Z,75.90
2023-02-03T17:28:31.722Z,75.86
2023-02-03T17:31:35.160Z,76.14
2023-02-03T17:34:38.630Z,75.90
2023-02-03T17:37:41.962Z,76.15
2023-02-03T17:54:07.803Z,76.29
2023-02-03T17:57:11.093Z,76.41
2023-02-03T18:00:14.770Z,76.36
2023-02-03T18:03:18.185Z,76.50
2023-02-03T18:06:23.544Z,76.61
2023-02-03T18:09:26.965Z,76.34
2023-02-03T18:12:30.606Z,76.44
2023-02-03T18:15:33.853Z,76.18
2023-02-03T18:18:38.891Z,76.49
2023-02-03T18:21:43.274Z,76.52
2023-02-03T18:39:07.245Z,76.55
2023-02-03T18:42:11.007Z,76.34
2023-02-03T18:45:14.210Z,76.49
2023-02-03T18:48:17.530Z,76.40
2023-02-03T18:51:22.447Z,76.36
2023-02-03T18:54:25.805Z,76.30
2023-02-03T18:57:29.086Z,76.40
2023-02-03T19:00:32.648Z,76.26
2023-02-03T19:03:38.004Z,76.17
2023-02-03T19:06:45.632Z,76.14
2023-02-03T19:09:48.882Z,76.29
2023-02-03T19:12:52.445Z,76.33
2023-02-03T19:15:55.738Z,76.16
2023-02-03T19:18:59.378Z,76.14
2023-02-03T19:22:02.957Z,75.91
2023-02-03T19:25:06.391Z,76.02
2023-02-03T19:28:14.237Z,76.03
2023-02-03T19:31:20.813Z,75.99
2023-02-03T19:34:24.132Z,75.97
2023-02-03T19:37:27.445Z,75.92
2023-02-03T19:40:31.317Z,76.00
2023-02-03T19:43:34.861Z,75.89
2023-02-03T19:46:38.350Z,76.06
2023-02-03T19:49:41.692Z,75.90
2023-02-03T19:52:45.208Z,75.88
2023-02-03T19:55:48.749Z,75.88
2023-02-03T19:58:54.197Z,76.07
2023-02-03T20:01:59.800Z,76.13
2023-02-03T20:05:11.148Z,76.21
2023-02-03T20:08:16.771Z,76.31
2023-02-03T20:11:20.547Z,76.23
2023-02-03T20:14:24.168Z,76.47
2023-02-03T20:17:42.963Z,76.35
2023-02-03T20:20:55.516Z,76.43
2023-02-03T20:23:58.913Z,76.48
2023-02-03T20:27:03.449Z,76.59
2023-02-03T20:30:07.495Z,76.51
2023-02-03T20:33:10.948Z,76.55
2023-02-03T20:36:14.228Z,76.54
2023-02-03T20:39:22.185Z,76.73
2023-02-03T20:42:25.568Z,76.75
2023-02-03T20:45:29.861Z,76.61
2023-02-03T20:48:33.385Z,76.87
2023-02-03T20:51:36.760Z,76.68
2023-02-03T20:54:40.559Z,76.89
2023-02-03T20:57:45.103Z,76.89
2023-02-03T21:00:49.613Z,76.87
2023-02-03T21:04:12.055Z,76.85
2023-02-03T21:07:18.132Z,77.08
2023-02-03T21:10:23.892Z,76.96
2023-02-03T21:13:30.001Z,77.06
2023-02-03T21:16:38.653Z,77.12
2023-02-03T21:19:42.473Z,77.17
2023-02-03T21:22:45.755Z,77.25
2023-02-03T21:25:49.026Z,77.13
2023-02-03T21:28:59.168Z,77.17
2023-02-03T21:32:04.510Z,77.38
2023-02-03T21:35:26.352Z,77.33
2023-02-03T21:38:33.158Z,77.48
2023-02-03T21:41:36.578Z,77.29
2023-02-03T21:44:40.691Z,77.51
2023-02-03T21:47:45.891Z,77.46
2023-02-03T21:50:49.158Z,77.52
2023-02-03T21:54:16.420Z,77.56
2023-02-03T21:57:20.929Z,77.64
2023-02-03T22:00:43.445Z,77.82
2023-02-03T22:03:51.560Z,77.70
2023-02-03T22:06:56.109Z,77.86
2023-02-03T22:09:59.501Z,77.82
2023-02-03T22:13:02.909Z,77.91
2023-02-03T22:16:07.158Z,77.74
2023-02-03T22:19:11.439Z,77.93
2023-02-03T22:22:14.911Z,78.08
2023-02-03T22:25:18.261Z,77.95
2023-02-03T22:28:21.579Z,77.80
2023-02-03T22:31:25.138Z,78.02
2023-02-03T22:34:35.984Z,77.83
2023-02-03T22:37:40.300Z,77.90
2023-02-03T22:40:44.628Z,77.94
2023-02-03T22:43:48.087Z,77.94
2023-02-03T22:46:51.454Z,78.07
2023-02-03T22:49:54.723Z,77.93
2023-02-03T22:52:58.098Z,77.98
2023-02-03T22:56:01.515Z,78.02
2023-02-03T22:59:04.813Z,77.98
2023-02-03T23:02:08.334Z,77.93
2023-02-03T23:05:11.728Z,77.96
2023-02-03T23:08:14.966Z,78.14
2023-02-03T23:11:18.699Z,78.27
2023-02-03T23:14:21.935Z,78.25
2023-02-03T23:17:25.734Z,78.05
2023-02-03T23:20:29.494Z,78.00
2023-02-03T23:23:33.072Z,78.05
2023-02-03T23:26:36.460Z,78.00
2023-02-03T23:29:39.785Z,78.09
2023-02-03T23:32:43.085Z,77.97
2023-02-03T23:35:46.373Z,77.84
2023-02-03T23:38:49.553Z,78.10
2023-02-03T23:41:52.825Z,77.94
2023-02-03T23:44:56.042Z,78.07
2023-02-03T23:47:59.419Z,78.05
2023-02-03T23:51:02.619Z,78.13
2023-02-03T23:54:05.846Z,78.08
2023-02-03T23:57:09.172Z,77.90
